sensor_id;sensor_type;location;lat;lon;timestamp;P1;durP1;ratioP1;P2;durP2;ratioP2
76475;SDS011;65308;50.078;14.854;2022-12-29T00:04:44;9.23;;;3.88;;
76475;SDS011;65308;50.078;14.854;2022-12-29T00:07:11;7.10;;;3.58;;
76475;SDS011;65308;50.078;14.854;2022-12-29T00:09:45;6.47;;;3.17;;
76475;SDS011;65308;50.078;14.854;2022-12-29T00:12:22;7.85;;;3.60;;
76475;SDS011;65308;50.078;14.854;2022-12-29T00:15:16;8.13;;;3.22;;
76475;SDS011;65308;50.078;14.854;2022-12-29T00:18:01;6.22;;;2.72;;
76475;SDS011;65308;50.078;14.854;2022-12-29T00:36:53;5.82;;;2.60;;
76475;SDS011;65308;50.078;14.854;2022-12-29T01:28:02;7.85;;;3.80;;
76475;SDS011;65308;50.078;14.854;2022-12-29T01:30:29;7.22;;;3.10;;
76475;SDS011;65308;50.078;14.854;2022-12-29T01:32:56;6.03;;;3.00;;
76475;SDS011;65308;50.078;14.854;2022-12-29T01:35:23;5.97;;;2.80;;
76475;SDS011;65308;50.078;14.854;2022-12-29T01:37:49;6.75;;;3.00;;
76475;SDS011;65308;50.078;14.854;2022-12-29T01:40:16;6.57;;;2.53;;
76475;SDS011;65308;50.078;14.854;2022-12-29T01:42:43;6.20;;;3.05;;
76475;SDS011;65308;50.078;14.854;2022-12-29T01:45:12;7.78;;;3.42;;
76475;SDS011;65308;50.078;14.854;2022-12-29T01:47:41;3.85;;;2.00;;
76475;SDS011;65308;50.078;14.854;2022-12-29T01:50:11;6.18;;;2.75;;
76475;SDS011;65308;50.078;14.854;2022-12-29T01:52:43;5.05;;;2.70;;
76475;SDS011;65308;50.078;14.854;2022-12-29T01:55:16;6.18;;;3.38;;
76475;SDS011;65308;50.078;14.854;2022-12-29T01:57:45;6.90;;;3.17;;
76475;SDS011;65308;50.078;14.854;2022-12-29T02:00:15;6.10;;;2.60;;
76475;SDS011;65308;50.078;14.854;2022-12-29T02:02:43;6.40;;;3.00;;
76475;SDS011;65308;50.078;14.854;2022-12-29T02:05:14;5.65;;;2.58;;
76475;SDS011;65308;50.078;14.854;2022-12-29T02:07:47;3.95;;;2.00;;
76475;SDS011;65308;50.078;14.854;2022-12-29T02:10:16;5.68;;;2.70;;
76475;SDS011;65308;50.078;14.854;2022-12-29T02:12:46;5.63;;;2.45;;
76475;SDS011;65308;50.078;14.854;2022-12-29T02:15:15;4.68;;;2.00;;
76475;SDS011;65308;50.078;14.854;2022-12-29T02:17:56;4.53;;;2.30;;
76475;SDS011;65308;50.078;14.854;2022-12-29T02:24:12;3.65;;;1.90;;
76475;SDS011;65308;50.078;14.854;2022-12-29T02:27:16;4.55;;;2.00;;
76475;SDS011;65308;50.078;14.854;2022-12-29T02:30:08;5.20;;;2.30;;
76475;SDS011;65308;50.078;14.854;2022-12-29T02:35:29;4.72;;;2.50;;
76475;SDS011;65308;50.078;14.854;2022-12-29T02:38:03;5.00;;;2.40;;
76475;SDS011;65308;50.078;14.854;2022-12-29T02:40:40;7.35;;;2.97;;
76475;SDS011;65308;50.078;14.854;2022-12-29T02:43:17;4.00;;;2.20;;
76475;SDS011;65308;50.078;14.854;2022-12-29T02:45:51;6.00;;;2.85;;
76475;SDS011;65308;50.078;14.854;2022-12-29T02:48:24;4.65;;;2.28;;
76475;SDS011;65308;50.078;14.854;2022-12-29T02:50:57;4.00;;;2.00;;
76475;SDS011;65308;50.078;14.854;2022-12-29T02:53:27;4.82;;;2.25;;
76475;SDS011;65308;50.078;14.854;2022-12-29T02:58:39;6.70;;;3.05;;
76475;SDS011;65308;50.078;14.854;2022-12-29T03:01:16;3.80;;;1.70;;
76475;SDS011;65308;50.078;14.854;2022-12-29T03:03:58;3.10;;;1.63;;
76475;SDS011;65308;50.078;14.854;2022-12-29T03:06:37;6.28;;;2.88;;
76475;SDS011;65308;50.078;14.854;2022-12-29T03:09:19;4.00;;;1.95;;
76475;SDS011;65308;50.078;14.854;2022-12-29T03:11:54;5.13;;;2.30;;
76475;SDS011;65308;50.078;14.854;2022-12-29T03:14:35;4.70;;;2.40;;
76475;SDS011;65308;50.078;14.854;2022-12-29T03:17:26;5.32;;;2.55;;
76475;SDS011;65308;50.078;14.854;2022-12-29T03:19:59;6.00;;;2.10;;
76475;SDS011;65308;50.078;14.854;2022-12-29T03:22:31;5.03;;;2.40;;
76475;SDS011;65308;50.078;14.854;2022-12-29T03:25:03;5.15;;;2.42;;
76475;SDS011;65308;50.078;14.854;2022-12-29T03:27:33;4.30;;;2.33;;
76475;SDS011;65308;50.078;14.854;2022-12-29T03:30:03;5.25;;;2.00;;
76475;SDS011;65308;50.078;14.854;2022-12-29T03:32:35;3.90;;;1.88;;
76475;SDS011;65308;50.078;14.854;2022-12-29T03:35:06;3.08;;;1.70;;
76475;SDS011;65308;50.078;14.854;2022-12-29T03:37:37;2.83;;;1.65;;
76475;SDS011;65308;50.078;14.854;2022-12-29T03:40:07;6.35;;;3.28;;
76475;SDS011;65308;50.078;14.854;2022-12-29T03:42:35;4.85;;;2.30;;
76475;SDS011;65308;50.078;14.854;2022-12-29T03:45:04;6.10;;;2.67;;
76475;SDS011;65308;50.078;14.854;2022-12-29T03:47:32;4.00;;;2.35;;
76475;SDS011;65308;50.078;14.854;2022-12-29T03:49:59;4.50;;;2.17;;
76475;SDS011;65308;50.078;14.854;2022-12-29T03:52:27;4.53;;;2.10;;
76475;SDS011;65308;50.078;14.854;2022-12-29T03:54:54;4.30;;;1.95;;
76475;SDS011;65308;50.078;14.854;2022-12-29T03:57:21;4.03;;;2.00;;
76475;SDS011;65308;50.078;14.854;2022-12-29T03:59:48;3.90;;;2.08;;
76475;SDS011;65308;50.078;14.854;2022-12-29T04:02:15;3.85;;;2.08;;
76475;SDS011;65308;50.078;14.854;2022-12-29T04:04:43;4.70;;;2.17;;
76475;SDS011;65308;50.078;14.854;2022-12-29T04:07:09;3.60;;;2.00;;
76475;SDS011;65308;50.078;14.854;2022-12-29T04:09:39;5.32;;;2.10;;
76475;SDS011;65308;50.078;14.854;2022-12-29T04:12:06;5.30;;;2.30;;
76475;SDS011;65308;50.078;14.854;2022-12-29T04:14:33;13.00;;;5.05;;
76475;SDS011;65308;50.078;14.854;2022-12-29T04:17:00;8.88;;;4.22;;
76475;SDS011;65308;50.078;14.854;2022-12-29T04:19:30;4.38;;;2.25;;
76475;SDS011;65308;50.078;14.854;2022-12-29T04:21:57;3.78;;;1.80;;
76475;SDS011;65308;50.078;14.854;2022-12-29T04:24:23;3.05;;;1.67;;
76475;SDS011;65308;50.078;14.854;2022-12-29T04:26:55;3.22;;;1.60;;
76475;SDS011;65308;50.078;14.854;2022-12-29T04:29:22;3.50;;;2.08;;
76475;SDS011;65308;50.078;14.854;2022-12-29T04:32:01;4.03;;;2.40;;
76475;SDS011;65308;50.078;14.854;2022-12-29T04:34:28;4.72;;;1.92;;
76475;SDS011;65308;50.078;14.854;2022-12-29T04:36:55;4.03;;;2.00;;
76475;SDS011;65308;50.078;14.854;2022-12-29T04:39:22;4.15;;;1.95;;
76475;SDS011;65308;50.078;14.854;2022-12-29T04:41:52;3.65;;;1.90;;
76475;SDS011;65308;50.078;14.854;2022-12-29T04:44:20;3.78;;;2.13;;
76475;SDS011;65308;50.078;14.854;2022-12-29T04:46:47;4.50;;;2.45;;
76475;SDS011;65308;50.078;14.854;2022-12-29T04:49:14;4.18;;;2.13;;
76475;SDS011;65308;50.078;14.854;2022-12-29T04:51:41;4.03;;;1.67;;
76475;SDS011;65308;50.078;14.854;2022-12-29T04:54:08;2.53;;;1.50;;
76475;SDS011;65308;50.078;14.854;2022-12-29T04:56:35;3.45;;;1.77;;
76475;SDS011;65308;50.078;14.854;2022-12-29T04:59:02;3.70;;;1.90;;
76475;SDS011;65308;50.078;14.854;2022-12-29T05:01:30;4.80;;;1.85;;
76475;SDS011;65308;50.078;14.854;2022-12-29T05:03:57;2.83;;;1.50;;
76475;SDS011;65308;50.078;14.854;2022-12-29T05:06:24;4.32;;;1.60;;
76475;SDS011;65308;50.078;14.854;2022-12-29T05:08:51;2.88;;;1.50;;
76475;SDS011;65308;50.078;14.854;2022-12-29T05:11:18;2.95;;;1.60;;
76475;SDS011;65308;50.078;14.854;2022-12-29T05:13:45;2.92;;;1.52;;
76475;SDS011;65308;50.078;14.854;2022-12-29T05:16:12;2.28;;;1.35;;
76475;SDS011;65308;50.078;14.854;2022-12-29T05:18:40;3.10;;;1.85;;
76475;SDS011;65308;50.078;14.854;2022-12-29T05:21:07;2.13;;;1.20;;
76475;SDS011;65308;50.078;14.854;2022-12-29T05:23:34;2.72;;;1.40;;
76475;SDS011;65308;50.078;14.854;2022-12-29T05:26:01;2.55;;;1.50;;
76475;SDS011;65308;50.078;14.854;2022-12-29T05:28:28;2.00;;;1.45;;
76475;SDS011;65308;50.078;14.854;2022-12-29T05:30:54;4.80;;;1.50;;
76475;SDS011;65308;50.078;14.854;2022-12-29T05:33:21;2.83;;;1.38;;
76475;SDS011;65308;50.078;14.854;2022-12-29T05:35:49;2.72;;;1.40;;
76475;SDS011;65308;50.078;14.854;2022-12-29T05:38:16;2.78;;;1.30;;
76475;SDS011;65308;50.078;14.854;2022-12-29T05:40:43;2.65;;;1.30;;
76475;SDS011;65308;50.078;14.854;2022-12-29T05:43:09;3.00;;;1.52;;
76475;SDS011;65308;50.078;14.854;2022-12-29T05:45:36;2.85;;;1.50;;
76475;SDS011;65308;50.078;14.854;2022-12-29T05:48:03;4.38;;;1.58;;
76475;SDS011;65308;50.078;14.854;2022-12-29T05:50:30;3.42;;;1.42;;
76475;SDS011;65308;50.078;14.854;2022-12-29T05:55:29;2.28;;;1.35;;
76475;SDS011;65308;50.078;14.854;2022-12-29T05:57:56;3.33;;;1.50;;
76475;SDS011;65308;50.078;14.854;2022-12-29T06:00:23;3.15;;;1.60;;
76475;SDS011;65308;50.078;14.854;2022-12-29T06:02:51;2.92;;;1.45;;
76475;SDS011;65308;50.078;14.854;2022-12-29T06:05:18;3.25;;;1.52;;
76475;SDS011;65308;50.078;14.854;2022-12-29T06:07:45;2.60;;;1.58;;
76475;SDS011;65308;50.078;14.854;2022-12-29T06:10:11;2.75;;;1.42;;
76475;SDS011;65308;50.078;14.854;2022-12-29T06:12:40;2.03;;;1.35;;
76475;SDS011;65308;50.078;14.854;2022-12-29T06:15:07;2.28;;;1.30;;
76475;SDS011;65308;50.078;14.854;2022-12-29T06:17:35;3.10;;;1.33;;
76475;SDS011;65308;50.078;14.854;2022-12-29T06:20:02;3.30;;;1.50;;
76475;SDS011;65308;50.078;14.854;2022-12-29T06:22:29;2.47;;;1.45;;
76475;SDS011;65308;50.078;14.854;2022-12-29T06:24:56;4.03;;;1.98;;
76475;SDS011;65308;50.078;14.854;2022-12-29T06:27:23;3.03;;;1.50;;
76475;SDS011;65308;50.078;14.854;2022-12-29T06:29:52;3.10;;;1.48;;
76475;SDS011;65308;50.078;14.854;2022-12-29T06:32:19;3.38;;;1.67;;
76475;SDS011;65308;50.078;14.854;2022-12-29T06:34:46;2.60;;;1.45;;
76475;SDS011;65308;50.078;14.854;2022-12-29T06:37:12;3.08;;;1.27;;
76475;SDS011;65308;50.078;14.854;2022-12-29T06:39:40;2.42;;;1.40;;
76475;SDS011;65308;50.078;14.854;2022-12-29T06:42:08;2.90;;;1.40;;
76475;SDS011;65308;50.078;14.854;2022-12-29T06:44:35;2.28;;;1.40;;
76475;SDS011;65308;50.078;14.854;2022-12-29T06:47:03;3.30;;;1.80;;
76475;SDS011;65308;50.078;14.854;2022-12-29T06:49:30;3.90;;;1.52;;
76475;SDS011;65308;50.078;14.854;2022-12-29T06:51:57;2.67;;;1.50;;
76475;SDS011;65308;50.078;14.854;2022-12-29T06:54:25;4.57;;;1.70;;
76475;SDS011;65308;50.078;14.854;2022-12-29T06:56:52;3.72;;;1.90;;
76475;SDS011;65308;50.078;14.854;2022-12-29T06:59:19;3.67;;;1.90;;
76475;SDS011;65308;50.078;14.854;2022-12-29T07:01:46;3.00;;;1.75;;
76475;SDS011;65308;50.078;14.854;2022-12-29T07:04:14;3.28;;;1.80;;
76475;SDS011;65308;50.078;14.854;2022-12-29T07:06:41;3.40;;;1.70;;
76475;SDS011;65308;50.078;14.854;2022-12-29T07:09:08;3.38;;;1.65;;
76475;SDS011;65308;50.078;14.854;2022-12-29T07:11:36;3.60;;;1.90;;
76475;SDS011;65308;50.078;14.854;2022-12-29T07:14:18;3.22;;;2.10;;
76475;SDS011;65308;50.078;14.854;2022-12-29T07:16:45;2.90;;;1.40;;
76475;SDS011;65308;50.078;14.854;2022-12-29T07:19:12;3.97;;;1.50;;
76475;SDS011;65308;50.078;14.854;2022-12-29T07:21:40;2.33;;;1.50;;
76475;SDS011;65308;50.078;14.854;2022-12-29T07:24:07;2.83;;;1.70;;
76475;SDS011;65308;50.078;14.854;2022-12-29T07:26:35;2.85;;;1.40;;
76475;SDS011;65308;50.078;14.854;2022-12-29T07:29:02;3.22;;;1.60;;
76475;SDS011;65308;50.078;14.854;2022-12-29T07:31:29;3.40;;;1.70;;
76475;SDS011;65308;50.078;14.854;2022-12-29T07:33:56;3.05;;;1.67;;
76475;SDS011;65308;50.078;14.854;2022-12-29T07:36:40;3.15;;;1.80;;
76475;SDS011;65308;50.078;14.854;2022-12-29T07:39:06;3.40;;;1.80;;
76475;SDS011;65308;50.078;14.854;2022-12-29T07:41:34;3.38;;;1.70;;
76475;SDS011;65308;50.078;14.854;2022-12-29T07:44:01;4.35;;;2.00;;
76475;SDS011;65308;50.078;14.854;2022-12-29T07:46:28;4.55;;;2.10;;
76475;SDS011;65308;50.078;14.854;2022-12-29T07:49:13;3.85;;;2.05;;
76475;SDS011;65308;50.078;14.854;2022-12-29T07:51:41;4.30;;;1.83;;
76475;SDS011;65308;50.078;14.854;2022-12-29T07:54:22;4.85;;;2.20;;
76475;SDS011;65308;50.078;14.854;2022-12-29T07:56:49;3.35;;;1.90;;
76475;SDS011;65308;50.078;14.854;2022-12-29T07:59:16;3.80;;;1.92;;
76475;SDS011;65308;50.078;14.854;2022-12-29T08:02:09;4.28;;;2.20;;
76475;SDS011;65308;50.078;14.854;2022-12-29T08:04:48;3.30;;;1.70;;
76475;SDS011;65308;50.078;14.854;2022-12-29T08:07:16;3.80;;;1.80;;
76475;SDS011;65308;50.078;14.854;2022-12-29T08:09:43;3.42;;;1.70;;
76475;SDS011;65308;50.078;14.854;2022-12-29T08:12:10;4.07;;;1.95;;
76475;SDS011;65308;50.078;14.854;2022-12-29T08:14:37;5.57;;;2.13;;
76475;SDS011;65308;50.078;14.854;2022-12-29T08:17:13;3.10;;;1.80;;
76475;SDS011;65308;50.078;14.854;2022-12-29T08:19:44;3.80;;;1.95;;
76475;SDS011;65308;50.078;14.854;2022-12-29T08:22:12;4.18;;;2.10;;
76475;SDS011;65308;50.078;14.854;2022-12-29T08:24:40;4.78;;;1.92;;
76475;SDS011;65308;50.078;14.854;2022-12-29T08:27:08;3.80;;;2.00;;
76475;SDS011;65308;50.078;14.854;2022-12-29T08:29:34;4.65;;;1.92;;
76475;SDS011;65308;50.078;14.854;2022-12-29T08:32:03;3.85;;;1.70;;
76475;SDS011;65308;50.078;14.854;2022-12-29T08:34:31;3.75;;;1.75;;
76475;SDS011;65308;50.078;14.854;2022-12-29T08:36:58;3.35;;;1.77;;
76475;SDS011;65308;50.078;14.854;2022-12-29T08:39:32;4.70;;;1.80;;
76475;SDS011;65308;50.078;14.854;2022-12-29T08:42:00;4.20;;;1.73;;
76475;SDS011;65308;50.078;14.854;2022-12-29T08:44:28;3.55;;;1.90;;
76475;SDS011;65308;50.078;14.854;2022-12-29T08:46:54;5.20;;;2.40;;
76475;SDS011;65308;50.078;14.854;2022-12-29T08:49:21;4.85;;;2.80;;
76475;SDS011;65308;50.078;14.854;2022-12-29T08:51:48;3.83;;;2.20;;
76475;SDS011;65308;50.078;14.854;2022-12-29T08:54:27;5.13;;;2.88;;
76475;SDS011;65308;50.078;14.854;2022-12-29T08:56:54;5.75;;;3.05;;
76475;SDS011;65308;50.078;14.854;2022-12-29T08:59:25;6.43;;;2.72;;
76475;SDS011;65308;50.078;14.854;2022-12-29T09:01:52;4.55;;;2.10;;
76475;SDS011;65308;50.078;14.854;2022-12-29T09:04:20;3.97;;;2.13;;
76475;SDS011;65308;50.078;14.854;2022-12-29T09:06:48;5.10;;;2.22;;
76475;SDS011;65308;50.078;14.854;2022-12-29T09:09:15;3.20;;;1.88;;
76475;SDS011;65308;50.078;14.854;2022-12-29T09:11:43;3.83;;;1.90;;
76475;SDS011;65308;50.078;14.854;2022-12-29T09:14:10;4.18;;;2.42;;
76475;SDS011;65308;50.078;14.854;2022-12-29T09:16:43;4.07;;;2.08;;
76475;SDS011;65308;50.078;14.854;2022-12-29T09:19:27;3.58;;;2.15;;
76475;SDS011;65308;50.078;14.854;2022-12-29T09:21:54;5.03;;;2.38;;
76475;SDS011;65308;50.078;14.854;2022-12-29T09:24:21;4.95;;;2.25;;
76475;SDS011;65308;50.078;14.854;2022-12-29T09:26:48;6.03;;;2.70;;
76475;SDS011;65308;50.078;14.854;2022-12-29T09:29:17;3.97;;;2.38;;
76475;SDS011;65308;50.078;14.854;2022-12-29T09:31:47;4.38;;;2.40;;
76475;SDS011;65308;50.078;14.854;2022-12-29T09:34:14;3.40;;;1.98;;
76475;SDS011;65308;50.078;14.854;2022-12-29T09:36:44;4.38;;;2.47;;
76475;SDS011;65308;50.078;14.854;2022-12-29T09:39:11;5.57;;;2.33;;
76475;SDS011;65308;50.078;14.854;2022-12-29T09:41:39;6.40;;;2.75;;
76475;SDS011;65308;50.078;14.854;2022-12-29T09:44:13;4.95;;;2.30;;
76475;SDS011;65308;50.078;14.854;2022-12-29T09:51:50;4.68;;;2.55;;
76475;SDS011;65308;50.078;14.854;2022-12-29T09:54:23;4.60;;;2.25;;
76475;SDS011;65308;50.078;14.854;2022-12-29T09:56:57;4.47;;;2.15;;
76475;SDS011;65308;50.078;14.854;2022-12-29T09:59:32;4.55;;;2.50;;
76475;SDS011;65308;50.078;14.854;2022-12-29T10:02:13;5.10;;;2.50;;
76475;SDS011;65308;50.078;14.854;2022-12-29T10:04:50;5.25;;;2.50;;
76475;SDS011;65308;50.078;14.854;2022-12-29T10:07:24;6.10;;;2.55;;
76475;SDS011;65308;50.078;14.854;2022-12-29T10:10:00;5.38;;;2.72;;
76475;SDS011;65308;50.078;14.854;2022-12-29T10:12:36;7.70;;;2.60;;
76475;SDS011;65308;50.078;14.854;2022-12-29T10:15:22;5.03;;;2.35;;
76475;SDS011;65308;50.078;14.854;2022-12-29T10:18:01;4.07;;;2.30;;
76475;SDS011;65308;50.078;14.854;2022-12-29T10:20:37;4.13;;;2.60;;
76475;SDS011;65308;50.078;14.854;2022-12-29T10:23:19;8.35;;;4.65;;
76475;SDS011;65308;50.078;14.854;2022-12-29T10:25:53;11.65;;;5.20;;
76475;SDS011;65308;50.078;14.854;2022-12-29T10:28:34;9.73;;;4.55;;
76475;SDS011;65308;50.078;14.854;2022-12-29T10:31:04;10.02;;;3.10;;
76475;SDS011;65308;50.078;14.854;2022-12-29T10:33:45;5.00;;;2.70;;
76475;SDS011;65308;50.078;14.854;2022-12-29T10:36:16;4.30;;;2.20;;
76475;SDS011;65308;50.078;14.854;2022-12-29T10:38:51;4.38;;;2.63;;
76475;SDS011;65308;50.078;14.854;2022-12-29T10:41:26;4.93;;;2.88;;
76475;SDS011;65308;50.078;14.854;2022-12-29T10:44:00;4.10;;;2.22;;
76475;SDS011;65308;50.078;14.854;2022-12-29T10:46:27;6.78;;;2.30;;
76475;SDS011;65308;50.078;14.854;2022-12-29T10:48:57;4.75;;;2.80;;
76475;SDS011;65308;50.078;14.854;2022-12-29T10:51:26;5.50;;;2.72;;
76475;SDS011;65308;50.078;14.854;2022-12-29T10:53:59;5.22;;;2.30;;
76475;SDS011;65308;50.078;14.854;2022-12-29T10:56:32;4.43;;;2.60;;
76475;SDS011;65308;50.078;14.854;2022-12-29T10:59:03;5.35;;;2.80;;
76475;SDS011;65308;50.078;14.854;2022-12-29T11:01:37;4.10;;;2.30;;
76475;SDS011;65308;50.078;14.854;2022-12-29T11:04:18;4.57;;;2.60;;
76475;SDS011;65308;50.078;14.854;2022-12-29T11:06:58;5.43;;;2.80;;
76475;SDS011;65308;50.078;14.854;2022-12-29T11:09:31;5.38;;;3.00;;
76475;SDS011;65308;50.078;14.854;2022-12-29T11:12:04;5.88;;;3.40;;
76475;SDS011;65308;50.078;14.854;2022-12-29T11:14:45;5.00;;;2.78;;
76475;SDS011;65308;50.078;14.854;2022-12-29T11:17:16;5.32;;;2.80;;
76475;SDS011;65308;50.078;14.854;2022-12-29T11:19:49;4.50;;;2.65;;
76475;SDS011;65308;50.078;14.854;2022-12-29T11:22:20;4.82;;;2.65;;
76475;SDS011;65308;50.078;14.854;2022-12-29T11:24:50;5.45;;;2.70;;
76475;SDS011;65308;50.078;14.854;2022-12-29T11:27:19;3.85;;;2.20;;
76475;SDS011;65308;50.078;14.854;2022-12-29T11:29:49;4.18;;;2.20;;
76475;SDS011;65308;50.078;14.854;2022-12-29T11:32:17;3.35;;;2.28;;
76475;SDS011;65308;50.078;14.854;2022-12-29T11:34:45;5.53;;;2.30;;
76475;SDS011;65308;50.078;14.854;2022-12-29T11:37:13;5.65;;;3.03;;
76475;SDS011;65308;50.078;14.854;2022-12-29T11:39:44;5.03;;;2.63;;
76475;SDS011;65308;50.078;14.854;2022-12-29T11:42:19;5.72;;;2.33;;
76475;SDS011;65308;50.078;14.854;2022-12-29T11:47:25;4.93;;;2.67;;
76475;SDS011;65308;50.078;14.854;2022-12-29T11:49:56;5.03;;;2.80;;
76475;SDS011;65308;50.078;14.854;2022-12-29T11:52:25;3.53;;;2.15;;
76475;SDS011;65308;50.078;14.854;2022-12-29T11:54:56;5.35;;;2.35;;
76475;SDS011;65308;50.078;14.854;2022-12-29T11:57:27;3.97;;;2.25;;
76475;SDS011;65308;50.078;14.854;2022-12-29T11:59:55;4.18;;;2.53;;
76475;SDS011;65308;50.078;14.854;2022-12-29T12:02:32;5.28;;;2.60;;
76475;SDS011;65308;50.078;14.854;2022-12-29T12:05:09;5.80;;;2.85;;
76475;SDS011;65308;50.078;14.854;2022-12-29T12:07:40;4.60;;;2.40;;
76475;SDS011;65308;50.078;14.854;2022-12-29T12:10:13;4.43;;;2.80;;
76475;SDS011;65308;50.078;14.854;2022-12-29T12:12:48;6.15;;;3.15;;
76475;SDS011;65308;50.078;14.854;2022-12-29T12:15:31;5.50;;;2.60;;
76475;SDS011;65308;50.078;14.854;2022-12-29T12:18:05;6.25;;;3.10;;
76475;SDS011;65308;50.078;14.854;2022-12-29T12:20:44;6.78;;;3.38;;
76475;SDS011;65308;50.078;14.854;2022-12-29T12:23:18;6.30;;;2.90;;
76475;SDS011;65308;50.078;14.854;2022-12-29T12:25:55;5.68;;;2.92;;
76475;SDS011;65308;50.078;14.854;2022-12-29T12:28:42;4.60;;;2.50;;
76475;SDS011;65308;50.078;14.854;2022-12-29T12:31:17;6.60;;;3.08;;
76475;SDS011;65308;50.078;14.854;2022-12-29T12:33:50;4.50;;;2.70;;
76475;SDS011;65308;50.078;14.854;2022-12-29T12:36:30;5.75;;;2.65;;
76475;SDS011;65308;50.078;14.854;2022-12-29T12:39:10;5.75;;;2.80;;
76475;SDS011;65308;50.078;14.854;2022-12-29T12:41:45;4.63;;;2.50;;
76475;SDS011;65308;50.078;14.854;2022-12-29T12:44:24;5.35;;;2.50;;
76475;SDS011;65308;50.078;14.854;2022-12-29T12:52:49;4.07;;;2.58;;
76475;SDS011;65308;50.078;14.854;2022-12-29T12:55:45;6.30;;;2.67;;
76475;SDS011;65308;50.078;14.854;2022-12-29T12:58:24;6.13;;;3.08;;
76475;SDS011;65308;50.078;14.854;2022-12-29T13:01:00;6.43;;;3.60;;
76475;SDS011;65308;50.078;14.854;2022-12-29T13:03:44;5.53;;;2.80;;
76475;SDS011;65308;50.078;14.854;2022-12-29T13:06:19;4.55;;;2.45;;
76475;SDS011;65308;50.078;14.854;2022-12-29T13:09:03;5.38;;;2.90;;
76475;SDS011;65308;50.078;14.854;2022-12-29T13:11:51;4.95;;;2.42;;
76475;SDS011;65308;50.078;14.854;2022-12-29T13:17:01;5.78;;;2.78;;
76475;SDS011;65308;50.078;14.854;2022-12-29T13:19:34;5.82;;;3.05;;
76475;SDS011;65308;50.078;14.854;2022-12-29T13:22:07;15.63;;;7.60;;
76475;SDS011;65308;50.078;14.854;2022-12-29T13:24:44;41.53;;;18.15;;
76475;SDS011;65308;50.078;14.854;2022-12-29T13:29:50;11.15;;;5.10;;
76475;SDS011;65308;50.078;14.854;2022-12-29T13:32:32;7.32;;;4.10;;
76475;SDS011;65308;50.078;14.854;2022-12-29T13:35:14;6.03;;;2.60;;
76475;SDS011;65308;50.078;14.854;2022-12-29T13:37:51;7.88;;;5.40;;
76475;SDS011;65308;50.078;14.854;2022-12-29T13:40:21;5.57;;;2.83;;
76475;SDS011;65308;50.078;14.854;2022-12-29T13:42:51;4.97;;;2.85;;
76475;SDS011;65308;50.078;14.854;2022-12-29T13:47:49;10.98;;;4.90;;
76475;SDS011;65308;50.078;14.854;2022-12-29T13:50:21;3.70;;;2.17;;
76475;SDS011;65308;50.078;14.854;2022-12-29T13:52:51;4.20;;;2.15;;
76475;SDS011;65308;50.078;14.854;2022-12-29T13:55:26;5.00;;;2.67;;
76475;SDS011;65308;50.078;14.854;2022-12-29T13:57:58;5.95;;;2.70;;
76475;SDS011;65308;50.078;14.854;2022-12-29T14:03:09;5.15;;;2.75;;
76475;SDS011;65308;50.078;14.854;2022-12-29T14:05:43;5.55;;;3.42;;
76475;SDS011;65308;50.078;14.854;2022-12-29T14:08:29;6.20;;;3.17;;
76475;SDS011;65308;50.078;14.854;2022-12-29T14:11:02;4.72;;;2.45;;
76475;SDS011;65308;50.078;14.854;2022-12-29T14:13:36;6.10;;;2.67;;
76475;SDS011;65308;50.078;14.854;2022-12-29T14:16:05;6.22;;;3.00;;
76475;SDS011;65308;50.078;14.854;2022-12-29T14:18:42;8.02;;;3.67;;
76475;SDS011;65308;50.078;14.854;2022-12-29T14:21:11;7.32;;;4.35;;
76475;SDS011;65308;50.078;14.854;2022-12-29T14:23:48;6.60;;;3.58;;
76475;SDS011;65308;50.078;14.854;2022-12-29T14:26:16;6.60;;;3.08;;
76475;SDS011;65308;50.078;14.854;2022-12-29T14:28:45;9.27;;;4.00;;
76475;SDS011;65308;50.078;14.854;2022-12-29T14:34:21;8.75;;;3.97;;
76475;SDS011;65308;50.078;14.854;2022-12-29T14:36:57;6.28;;;3.55;;
76475;SDS011;65308;50.078;14.854;2022-12-29T14:39:34;7.68;;;4.32;;
76475;SDS011;65308;50.078;14.854;2022-12-29T14:42:04;5.63;;;3.58;;
76475;SDS011;65308;50.078;14.854;2022-12-29T14:44:33;8.23;;;4.57;;
76475;SDS011;65308;50.078;14.854;2022-12-29T14:47:01;7.85;;;4.80;;
76475;SDS011;65308;50.078;14.854;2022-12-29T14:49:39;6.78;;;3.90;;
76475;SDS011;65308;50.078;14.854;2022-12-29T14:52:12;8.55;;;4.50;;
76475;SDS011;65308;50.078;14.854;2022-12-29T14:54:44;9.88;;;5.05;;
76475;SDS011;65308;50.078;14.854;2022-12-29T14:57:26;12.20;;;6.57;;
76475;SDS011;65308;50.078;14.854;2022-12-29T14:59:58;11.05;;;6.40;;
76475;SDS011;65308;50.078;14.854;2022-12-29T15:02:33;12.68;;;6.28;;
76475;SDS011;65308;50.078;14.854;2022-12-29T15:05:05;16.92;;;8.10;;
76475;SDS011;65308;50.078;14.854;2022-12-29T15:07:46;14.25;;;6.90;;
76475;SDS011;65308;50.078;14.854;2022-12-29T15:10:14;13.90;;;6.68;;
76475;SDS011;65308;50.078;14.854;2022-12-29T15:12:45;9.57;;;5.22;;
76475;SDS011;65308;50.078;14.854;2022-12-29T15:17:45;6.93;;;4.05;;
76475;SDS011;65308;50.078;14.854;2022-12-29T15:20:21;9.60;;;5.53;;
76475;SDS011;65308;50.078;14.854;2022-12-29T15:22:53;10.52;;;5.10;;
76475;SDS011;65308;50.078;14.854;2022-12-29T15:25:22;9.23;;;5.40;;
76475;SDS011;65308;50.078;14.854;2022-12-29T15:27:49;11.98;;;6.50;;
76475;SDS011;65308;50.078;14.854;2022-12-29T15:30:17;9.85;;;5.47;;
76475;SDS011;65308;50.078;14.854;2022-12-29T15:32:45;10.82;;;6.25;;
76475;SDS011;65308;50.078;14.854;2022-12-29T15:35:25;11.82;;;6.22;;
76475;SDS011;65308;50.078;14.854;2022-12-29T15:37:56;13.30;;;7.68;;
76475;SDS011;65308;50.078;14.854;2022-12-29T15:40:25;7.60;;;4.70;;
76475;SDS011;65308;50.078;14.854;2022-12-29T15:42:59;12.90;;;7.38;;
76475;SDS011;65308;50.078;14.854;2022-12-29T15:45:44;10.77;;;5.32;;
76475;SDS011;65308;50.078;14.854;2022-12-29T15:48:13;16.88;;;8.05;;
76475;SDS011;65308;50.078;14.854;2022-12-29T15:53:41;25.75;;;12.95;;
76475;SDS011;65308;50.078;14.854;2022-12-29T15:56:08;37.97;;;15.85;;
76475;SDS011;65308;50.078;14.854;2022-12-29T15:58:39;39.45;;;17.65;;
76475;SDS011;65308;50.078;14.854;2022-12-29T16:01:15;25.75;;;12.23;;
76475;SDS011;65308;50.078;14.854;2022-12-29T16:03:44;25.00;;;11.45;;
76475;SDS011;65308;50.078;14.854;2022-12-29T16:06:24;34.65;;;13.55;;
76475;SDS011;65308;50.078;14.854;2022-12-29T16:08:57;20.15;;;9.23;;
76475;SDS011;65308;50.078;14.854;2022-12-29T16:11:25;24.63;;;13.32;;
76475;SDS011;65308;50.078;14.854;2022-12-29T16:13:54;17.73;;;9.35;;
76475;SDS011;65308;50.078;14.854;2022-12-29T16:16:24;22.63;;;15.25;;
76475;SDS011;65308;50.078;14.854;2022-12-29T16:18:54;21.23;;;12.98;;
76475;SDS011;65308;50.078;14.854;2022-12-29T16:21:23;22.15;;;15.70;;
76475;SDS011;65308;50.078;14.854;2022-12-29T16:24:08;26.60;;;15.38;;
76475;SDS011;65308;50.078;14.854;2022-12-29T16:26:44;16.52;;;10.77;;
76475;SDS011;65308;50.078;14.854;2022-12-29T16:29:13;12.80;;;7.82;;
76475;SDS011;65308;50.078;14.854;2022-12-29T16:34:21;13.90;;;6.13;;
76475;SDS011;65308;50.078;14.854;2022-12-29T16:36:54;39.92;;;15.73;;
76475;SDS011;65308;50.078;14.854;2022-12-29T16:45:08;8.93;;;5.28;;
76475;SDS011;65308;50.078;14.854;2022-12-29T16:48:09;12.82;;;7.18;;
76475;SDS011;65308;50.078;14.854;2022-12-29T16:50:43;24.20;;;11.90;;
76475;SDS011;65308;50.078;14.854;2022-12-29T17:01:15;16.63;;;9.48;;
76475;SDS011;65308;50.078;14.854;2022-12-29T17:03:46;13.77;;;7.85;;
76475;SDS011;65308;50.078;14.854;2022-12-29T17:06:19;18.05;;;9.77;;
76475;SDS011;65308;50.078;14.854;2022-12-29T17:08:49;20.00;;;10.95;;